Time;durP1;ratioP1;P1;durP2;ratioP2;P2;SDS_P1;SDS_P2;PMS_P1;PMS_P2;Temp;Humidity;BMP_temperature;BMP_pressure;BME280_temperature;BME280_humidity;BME280_pressure;Samples;Min_cycle;Max_cycle;Signal;HPM_P1;HPM_P2
2023/02/02 00:01:33;;;;;;;10.60;3.37;;;8.40;99.90;;;;;;5033711;28;20880;-72
2023/02/02 00:03:59;;;;;;;7.10;3.57;;;8.40;99.90;;;;;;5033690;28;20485;-72
2023/02/02 00:06:26;;;;;;;8.33;2.90;;;8.40;99.90;;;;;;5033624;28;20985;-72
2023/02/02 00:08:54;;;;;;;3.90;2.80;;;8.40;99.90;;;;;;5033499;28;20831;-72
2023/02/02 00:11:19;;;;;;;5.43;2.63;;;8.40;99.90;;;;;;5032737;28;20442;-72
2023/02/02 00:13:45;;;;;;;9.00;3.27;;;8.30;99.90;;;;;;5044347;28;20495;-72
2023/02/02 00:16:26;;;;;;;9.00;3.33;;;8.30;99.90;;;;;;5062002;28;20183;-73
2023/02/02 00:18:52;;;;;;;13.23;2.90;;;8.20;99.90;;;;;;5039055;28;20681;-72
2023/02/02 00:21:18;;;;;;;4.07;2.70;;;8.20;99.90;;;;;;5033381;28;20411;-72
2023/02/02 00:23:43;;;;;;;9.90;3.13;;;8.20;99.90;;;;;;5033168;28;20414;-73
2023/02/02 00:26:09;;;;;;;5.20;3.20;;;8.10;99.90;;;;;;5033021;28;20171;-71
2023/02/02 00:28:35;;;;;;;14.83;3.80;;;8.20;99.90;;;;;;5033172;28;20634;-73
2023/02/02 00:31:00;;;;;;;8.60;2.70;;;8.20;99.90;;;;;;5033264;28;20479;-72
2023/02/02 00:33:26;;;;;;;6.90;2.87;;;8.20;99.90;;;;;;5033000;28;20222;-73
2023/02/02 00:35:52;;;;;;;10.00;3.37;;;8.20;99.90;;;;;;5032859;28;20625;-73
2023/02/02 00:38:18;;;;;;;12.23;2.80;;;8.30;99.90;;;;;;5033027;28;20171;-74
2023/02/02 00:40:43;;;;;;;6.53;3.20;;;8.20;99.90;;;;;;5032945;28;20187;-73
2023/02/02 00:43:09;;;;;;;10.53;2.93;;;8.30;99.90;;;;;;5031798;28;20413;-71
2023/02/02 00:45:35;;;;;;;6.07;2.37;;;8.30;99.90;;;;;;5040499;28;20159;-72
2023/02/02 00:48:01;;;;;;;4.83;3.13;;;8.30;99.90;;;;;;5052002;28;20440;-72
2023/02/02 00:50:27;;;;;;;5.83;2.70;;;8.40;99.90;;;;;;5052673;28;20425;-72
2023/02/02 00:52:53;;;;;;;6.60;3.27;;;8.40;99.90;;;;;;5051064;28;20483;-72
2023/02/02 00:55:19;;;;;;;12.87;3.50;;;8.40;99.90;;;;;;5051924;28;20456;-72
2023/02/02 00:57:44;;;;;;;6.93;2.67;;;8.40;99.90;;;;;;5052579;28;20163;-73
2023/02/02 01:00:19;;;;;;;8.20;2.50;;;8.40;99.90;;;;;;5052429;28;20448;-71
2023/02/02 01:02:45;;;;;;;9.07;2.90;;;8.40;99.90;;;;;;5051281;28;20171;-71
2023/02/02 01:05:12;;;;;;;6.70;4.20;;;8.40;99.90;;;;;;5052024;28;20401;-71
2023/02/02 01:07:39;;;;;;;5.00;2.43;;;8.40;99.90;;;;;;5052393;28;20406;-71
2023/02/02 01:10:07;;;;;;;16.37;2.83;;;8.40;99.90;;;;;;5052282;28;20953;-71
2023/02/02 01:12:33;;;;;;;9.50;3.63;;;8.50;99.90;;;;;;5052233;28;20993;-71
2023/02/02 01:14:58;;;;;;;13.17;4.33;;;8.50;99.90;;;;;;5052077;28;20441;-71
2023/02/02 01:17:24;;;;;;;8.47;3.50;;;8.50;99.90;;;;;;5044132;28;20180;-71
2023/02/02 01:19:49;;;;;;;7.83;3.20;;;8.40;99.90;;;;;;5032390;28;20183;-72
2023/02/02 01:22:15;;;;;;;15.40;3.57;;;8.40;99.90;;;;;;5032262;28;20182;-72
2023/02/02 01:24:40;;;;;;;9.70;3.70;;;8.40;99.90;;;;;;5035985;28;20202;-72
2023/02/02 01:27:06;;;;;;;3.60;2.70;;;8.40;99.90;;;;;;5061851;28;20258;-72
2023/02/02 01:29:32;;;;;;;6.07;2.90;;;8.50;99.90;;;;;;5052043;28;20532;-72
2023/02/02 01:31:57;;;;;;;10.97;2.70;;;8.50;99.90;;;;;;5052068;28;20167;-72
2023/02/02 01:34:23;;;;;;;5.00;2.50;;;8.50;99.90;;;;;;5051653;28;20222;-72
2023/02/02 01:36:48;;;;;;;7.97;2.73;;;8.40;99.90;;;;;;5050803;28;20205;-73
2023/02/02 01:39:14;;;;;;;4.03;2.53;;;8.50;99.90;;;;;;5051769;28;20206;-71
2023/02/02 01:41:41;;;;;;;7.13;2.67;;;8.50;99.90;;;;;;5052008;28;20207;-71
2023/02/02 01:44:44;;;;;;;9.80;2.90;;;8.50;99.90;;;;;;5051780;28;20197;-71
2023/02/02 01:47:10;;;;;;;12.57;3.43;;;8.40;99.90;;;;;;5039651;28;20463;-73
2023/02/02 01:49:37;;;;;;;6.77;2.63;;;8.40;99.90;;;;;;5032158;28;20430;-73
2023/02/02 01:52:03;;;;;;;6.77;2.90;;;8.30;99.90;;;;;;5031965;28;20403;-73
2023/02/02 01:54:39;;;;;;;4.67;3.30;;;8.30;99.90;;;;;;5031358;28;20493;-72
2023/02/02 01:57:11;;;;;;;5.23;4.37;;;8.30;99.90;;;;;;5031922;28;20405;-72
2023/02/02 01:59:37;;;;;;;6.00;2.80;;;8.40;99.90;;;;;;5031815;28;20500;-73
2023/02/02 02:02:03;;;;;;;15.60;3.40;;;8.40;99.90;;;;;;5031878;28;20403;-73
2023/02/02 02:04:30;;;;;;;10.23;2.70;;;8.40;99.90;;;;;;5031613;28;20663;-71
2023/02/02 02:06:56;;;;;;;11.80;4.53;;;8.40;99.90;;;;;;5031700;28;20463;-72
2023/02/02 02:09:22;;;;;;;19.40;3.73;;;8.40;99.90;;;;;;5031387;28;20993;-72
2023/02/02 02:11:47;;;;;;;7.70;2.30;;;8.50;99.90;;;;;;5031683;28;20414;-73
2023/02/02 02:17:13;;;;;;;11.00;3.03;;;8.50;99.90;;;;;;5031894;28;20267;-72
2023/02/02 02:26:34;;;;;;;3.90;2.53;;;8.50;99.90;;;;;;5031451;28;20390;-71
2023/02/02 02:29:16;;;;;;;9.30;3.03;;;8.50;99.90;;;;;;5031515;28;20417;-71
2023/02/02 02:32:00;;;;;;;4.70;2.73;;;8.40;99.90;;;;;;5031488;28;20498;-73
2023/02/02 02:34:54;;;;;;;7.90;3.00;;;8.40;99.90;;;;;;5054281;28;20454;-73
2023/02/02 02:37:43;;;;;;;10.87;3.77;;;8.40;99.90;;;;;;5033981;28;20414;-71
2023/02/02 02:40:31;;;;;;;10.37;3.40;;;8.40;99.90;;;;;;5035294;28;20524;-73
2023/02/02 02:43:08;;;;;;;3.70;2.50;;;8.40;99.90;;;;;;5035179;28;20445;-72
2023/02/02 02:45:35;;;;;;;10.07;3.17;;;8.30;99.90;;;;;;5042138;28;20423;-72
2023/02/02 02:48:02;;;;;;;13.97;3.77;;;8.30;99.90;;;;;;5052211;28;20431;-74
2023/02/02 02:50:27;;;;;;;19.17;4.13;;;8.40;99.90;;;;;;5053652;28;20822;-72
2023/02/02 02:53:18;;;;;;;10.30;2.87;;;8.40;99.90;;;;;;5051790;28;20421;-72
2023/02/02 02:55:57;;;;;;;13.53;3.93;;;8.50;99.90;;;;;;5031930;28;20217;-72
2023/02/02 02:58:40;;;;;;;7.50;2.70;;;8.40;99.90;;;;;;5034887;28;20408;-72
2023/02/02 03:01:22;;;;;;;30.33;4.07;;;8.40;99.90;;;;;;5034913;28;20414;-71
2023/02/02 03:04:09;;;;;;;12.57;3.70;;;8.40;99.90;;;;;;5035002;28;20441;-73
2023/02/02 03:06:51;;;;;;;11.53;3.80;;;8.50;99.90;;;;;;5034645;28;20787;-72
2023/02/02 03:09:28;;;;;;;8.00;4.13;;;8.40;99.90;;;;;;5034605;28;20536;-70
2023/02/02 03:11:55;;;;;;;14.73;4.40;;;8.40;99.90;;;;;;5034746;28;20397;-72
2023/02/02 03:14:20;;;;;;;9.93;4.00;;;8.40;99.90;;;;;;5034382;28;20929;-72
2023/02/02 03:16:46;;;;;;;7.00;3.30;;;8.40;99.90;;;;;;5047116;28;20496;-72
2023/02/02 03:19:12;;;;;;;20.53;3.47;;;8.40;99.90;;;;;;5054366;28;20183;-71
2023/02/02 03:21:37;;;;;;;7.83;4.70;;;8.40;99.90;;;;;;5054315;28;20175;-73
2023/02/02 03:24:03;;;;;;;8.10;4.20;;;8.40;99.90;;;;;;5053021;28;20175;-73
2023/02/02 03:26:28;;;;;;;8.03;3.13;;;8.40;99.90;;;;;;5054051;28;20186;-70
2023/02/02 03:28:56;;;;;;;10.30;3.00;;;8.30;99.90;;;;;;5053031;28;20194;-72
2023/02/02 03:31:22;;;;;;;9.93;4.00;;;8.30;99.90;;;;;;5054175;28;20683;-71
2023/02/02 03:33:47;;;;;;;7.33;3.17;;;8.30;99.90;;;;;;5054154;28;20962;-72
2023/02/02 03:36:13;;;;;;;13.33;3.80;;;8.20;99.90;;;;;;5053844;28;20405;-72
2023/02/02 03:38:38;;;;;;;12.93;6.40;;;8.30;99.90;;;;;;5053982;28;20166;-72
2023/02/02 03:41:05;;;;;;;13.43;4.03;;;8.30;99.90;;;;;;5054046;28;20237;-72
2023/02/02 03:43:30;;;;;;;9.00;3.40;;;8.20;99.90;;;;;;5054113;28;20170;-70
2023/02/02 03:45:57;;;;;;;4.23;3.10;;;8.30;99.90;;;;;;5043085;28;20919;-74
2023/02/02 03:48:23;;;;;;;6.37;2.67;;;8.30;99.90;;;;;;5068438;28;20177;-72
2023/02/02 03:50:48;;;;;;;7.77;2.83;;;8.30;99.90;;;;;;5073710;28;20424;-71
2023/02/02 03:53:14;;;;;;;9.30;3.13;;;8.20;99.90;;;;;;5073769;28;20190;-71
2023/02/02 03:55:40;;;;;;;12.30;3.63;;;8.30;99.90;;;;;;5073616;28;20170;-72
2023/02/02 03:58:06;;;;;;;18.33;3.50;;;8.20;99.90;;;;;;5073844;28;20173;-73
2023/02/02 04:00:31;;;;;;;14.70;3.87;;;8.20;99.90;;;;;;5073579;28;20424;-74
2023/02/02 04:02:57;;;;;;;7.90;3.00;;;8.20;99.90;;;;;;5073974;28;20885;-70
2023/02/02 04:05:22;;;;;;;15.67;3.70;;;8.20;99.90;;;;;;5073387;28;20757;-72
2023/02/02 04:07:48;;;;;;;9.00;3.40;;;8.20;99.90;;;;;;5072677;28;20170;-72
2023/02/02 04:10:13;;;;;;;7.93;3.60;;;8.20;99.90;;;;;;5073233;28;20201;-71
2023/02/02 04:12:39;;;;;;;7.30;3.53;;;8.30;99.90;;;;;;5073507;28;20178;-72
2023/02/02 04:15:05;;;;;;;9.80;3.63;;;8.30;99.90;;;;;;5069933;28;20166;-73
2023/02/02 04:17:31;;;;;;;9.07;3.73;;;8.40;99.90;;;;;;5034667;28;20179;-72
2023/02/02 04:19:57;;;;;;;8.40;3.50;;;8.30;99.90;;;;;;5033300;28;20430;-72
2023/02/02 04:22:24;;;;;;;6.00;3.20;;;8.40;99.90;;;;;;5033413;28;20580;-71
2023/02/02 04:24:49;;;;;;;10.33;3.17;;;8.20;99.90;;;;;;5031916;28;20438;-71
2023/02/02 04:27:15;;;;;;;10.97;4.00;;;8.20;99.90;;;;;;5033236;28;20892;-72
2023/02/02 04:29:40;;;;;;;10.93;4.63;;;8.20;99.90;;;;;;5033258;28;20661;-71
2023/02/02 04:32:06;;;;;;;8.40;3.83;;;8.20;99.90;;;;;;5033213;28;20172;-72
2023/02/02 04:34:31;;;;;;;5.50;3.70;;;8.30;99.90;;;;;;5032848;28;20612;-71
2023/02/02 04:36:58;;;;;;;5.67;3.43;;;8.20;99.90;;;;;;5033154;28;20654;-70
2023/02/02 04:39:23;;;;;;;12.43;3.90;;;8.30;99.90;;;;;;5033067;28;20192;-72
2023/02/02 04:41:49;;;;;;;5.23;3.73;;;8.30;99.90;;;;;;5032958;28;21027;-72
2023/02/02 04:44:15;;;;;;;10.53;3.10;;;8.40;99.90;;;;;;5032740;28;20305;-73
2023/02/02 04:46:42;;;;;;;13.13;3.87;;;8.30;99.90;;;;;;5048747;28;20645;-73
2023/02/02 04:49:10;;;;;;;9.63;3.73;;;8.30;99.90;;;;;;5052559;28;20483;-73
2023/02/02 04:51:37;;;;;;;16.03;4.47;;;8.20;99.90;;;;;;5062920;28;20419;-73
2023/02/02 04:54:02;;;;;;;15.30;4.03;;;8.20;99.90;;;;;;5054466;28;20465;-72
2023/02/02 04:56:28;;;;;;;8.63;5.07;;;8.20;99.90;;;;;;5052136;28;20751;-72
2023/02/02 04:58:55;;;;;;;14.00;3.90;;;8.20;99.90;;;;;;5052289;28;20182;-72
2023/02/02 05:01:21;;;;;;;10.53;4.80;;;8.10;99.90;;;;;;5051344;28;20186;-72
2023/02/02 05:03:47;;;;;;;18.40;3.87;;;8.10;99.90;;;;;;5052491;28;20420;-73
2023/02/02 05:06:13;;;;;;;9.67;4.37;;;8.10;99.90;;;;;;5052172;28;20416;-73
2023/02/02 05:08:39;;;;;;;13.93;5.13;;;8.00;99.90;;;;;;5052251;28;20405;-72
2023/02/02 05:11:06;;;;;;;13.00;4.50;;;8.00;99.90;;;;;;5052432;28;20913;-73
2023/02/02 05:13:32;;;;;;;14.77;4.40;;;8.10;99.90;;;;;;5052380;28;20260;-72
2023/02/02 05:15:58;;;;;;;6.73;4.10;;;8.00;99.90;;;;;;5051490;28;20413;-74
2023/02/02 05:18:24;;;;;;;13.77;3.80;;;8.10;99.90;;;;;;5037074;28;20556;-74
2023/02/02 05:20:50;;;;;;;14.30;5.70;;;8.10;99.90;;;;;;5032193;28;20191;-72
2023/02/02 05:23:16;;;;;;;12.63;3.27;;;8.10;99.90;;;;;;5032325;28;20885;-73
2023/02/02 05:25:41;;;;;;;5.97;4.13;;;8.10;99.90;;;;;;5031981;28;20409;-72
2023/02/02 05:28:07;;;;;;;13.03;3.83;;;8.20;99.90;;;;;;5032330;28;20229;-72
2023/02/02 05:30:32;;;;;;;13.10;4.30;;;8.20;99.90;;;;;;5032121;28;20273;-72
2023/02/02 05:32:58;;;;;;;5.47;3.77;;;8.20;99.90;;;;;;5032169;28;20172;-72
2023/02/02 05:35:23;;;;;;;9.47;3.03;;;8.20;99.90;;;;;;5031888;28;20175;-72
2023/02/02 05:37:49;;;;;;;7.83;4.00;;;8.10;99.90;;;;;;5032287;28;20572;-72
2023/02/02 05:40:15;;;;;;;5.97;3.10;;;8.00;99.90;;;;;;5032063;28;20703;-72
2023/02/02 05:42:40;;;;;;;10.47;4.33;;;8.00;99.90;;;;;;5032005;28;20599;-73
2023/02/02 05:45:06;;;;;;;8.80;4.80;;;8.00;99.90;;;;;;5033625;28;20186;-72
2023/02/02 05:47:34;;;;;;;13.03;4.37;;;7.90;99.90;;;;;;5051702;28;20178;-72
2023/02/02 05:50:01;;;;;;;13.43;4.30;;;7.80;99.90;;;;;;5051843;28;20849;-71
2023/02/02 05:52:28;;;;;;;5.97;4.53;;;7.80;99.90;;;;;;5051871;28;20445;-72
2023/02/02 05:54:53;;;;;;;11.23;3.40;;;7.80;99.90;;;;;;5051542;28;20531;-72
2023/02/02 05:57:19;;;;;;;14.93;3.60;;;7.80;99.90;;;;;;5051880;28;20401;-72
2023/02/02 05:59:46;;;;;;;7.43;4.00;;;7.70;99.90;;;;;;5051743;28;20690;-71
2023/02/02 06:02:11;;;;;;;6.47;3.97;;;7.70;99.90;;;;;;5045261;28;20659;-71
2023/02/02 06:04:37;;;;;;;10.20;4.90;;;7.70;99.90;;;;;;5060515;28;20417;-71
2023/02/02 06:07:02;;;;;;;12.03;4.73;;;7.70;99.90;;;;;;5051751;28;20181;-72
2023/02/02 06:09:28;;;;;;;6.47;4.50;;;7.60;99.90;;;;;;5053068;28;20249;-72
2023/02/02 06:11:53;;;;;;;12.33;4.90;;;7.70;99.90;;;;;;5055835;28;20262;-72
2023/02/02 06:14:19;;;;;;;6.70;4.73;;;7.70;99.90;;;;;;5051687;28;20199;-73
2023/02/02 06:16:44;;;;;;;13.93;4.20;;;7.70;99.90;;;;;;5035832;28;20559;-71
2023/02/02 06:19:10;;;;;;;17.67;5.50;;;7.70;99.90;;;;;;5041683;28;20561;-72
2023/02/02 06:21:35;;;;;;;10.70;6.47;;;7.70;99.90;;;;;;5035808;28;20168;-72
2023/02/02 06:24:01;;;;;;;12.17;4.93;;;7.80;99.90;;;;;;5035678;28;20242;-72
2023/02/02 06:26:27;;;;;;;6.73;4.53;;;7.80;99.90;;;;;;5035348;28;20167;-73
2023/02/02 06:28:53;;;;;;;7.53;4.70;;;7.80;99.90;;;;;;5035536;28;20202;-73
2023/02/02 06:31:20;;;;;;;9.13;4.60;;;7.90;99.90;;;;;;5035495;28;20167;-71
2023/02/02 06:33:56;;;;;;;8.83;5.37;;;7.80;99.90;;;;;;5035379;28;20454;-71
2023/02/02 06:36:23;;;;;;;7.63;3.70;;;7.80;99.90;;;;;;5035277;28;20988;-71
2023/02/02 06:38:49;;;;;;;10.13;4.70;;;7.80;99.90;;;;;;5035368;28;20402;-73
2023/02/02 06:41:15;;;;;;;8.57;4.73;;;7.80;99.90;;;;;;5035363;28;20497;-71
2023/02/02 06:43:40;;;;;;;4.63;4.00;;;7.90;99.90;;;;;;5035345;28;20828;-73
2023/02/02 06:46:06;;;;;;;6.90;4.17;;;7.90;99.90;;;;;;5035126;28;20179;-72
2023/02/02 06:48:31;;;;;;;9.73;3.70;;;7.90;99.90;;;;;;5033906;28;20171;-73
2023/02/02 06:50:58;;;;;;;9.27;4.20;;;7.80;99.90;;;;;;5035183;28;20537;-71
2023/02/02 06:53:25;;;;;;;5.13;3.53;;;7.80;99.90;;;;;;5035024;28;20564;-73
2023/02/02 06:55:55;;;;;;;9.27;4.73;;;7.80;99.90;;;;;;5034666;28;20409;-72
2023/02/02 06:58:21;;;;;;;6.17;3.50;;;7.80;99.90;;;;;;5034892;28;20394;-71
2023/02/02 07:00:47;;;;;;;14.27;4.90;;;7.80;99.90;;;;;;5034916;28;20522;-72
2023/02/02 07:03:13;;;;;;;8.10;4.30;;;7.80;99.90;;;;;;5034853;28;20174;-73
2023/02/02 07:05:38;;;;;;;9.40;4.70;;;7.80;99.90;;;;;;5034586;28;20218;-72
2023/02/02 07:08:04;;;;;;;12.37;4.90;;;7.80;99.90;;;;;;5034890;28;20434;-71
2023/02/02 07:10:30;;;;;;;13.27;4.30;;;7.80;99.90;;;;;;5034574;28;20572;-71
2023/02/02 07:12:55;;;;;;;12.60;4.80;;;7.80;99.90;;;;;;5036448;28;20175;-72
2023/02/02 07:15:21;;;;;;;6.70;3.53;;;7.80;99.90;;;;;;5063841;28;20194;-70
2023/02/02 07:17:46;;;;;;;11.80;4.93;;;7.90;99.90;;;;;;5054648;28;20166;-71
2023/02/02 07:20:12;;;;;;;12.70;4.50;;;7.90;99.90;;;;;;5054256;28;20269;-71
2023/02/02 07:22:38;;;;;;;14.70;3.57;;;7.90;99.90;;;;;;5054512;28;20171;-72
2023/02/02 07:25:05;;;;;;;6.83;3.73;;;7.90;99.90;;;;;;5054066;28;20162;-72
2023/02/02 07:27:31;;;;;;;10.10;4.27;;;7.90;99.90;;;;;;5054419;28;20434;-72
2023/02/02 07:29:57;;;;;;;7.80;3.60;;;8.00;99.90;;;;;;5054141;28;20433;-72
2023/02/02 07:32:23;;;;;;;10.60;5.57;;;8.00;99.90;;;;;;5054276;28;20401;-72
2023/02/02 07:34:48;;;;;;;8.00;3.93;;;8.10;99.90;;;;;;5053341;28;20201;-72
2023/02/02 07:37:15;;;;;;;6.80;4.00;;;8.10;99.90;;;;;;5054240;28;20217;-72
2023/02/02 07:39:42;;;;;;;14.83;5.00;;;8.00;99.90;;;;;;5054190;28;20668;-72
2023/02/02 07:42:10;;;;;;;10.87;4.20;;;8.10;99.90;;;;;;5049221;28;20421;-72
2023/02/02 07:44:35;;;;;;;12.20;3.83;;;8.10;99.90;;;;;;5052555;28;20988;-72
2023/02/02 07:47:01;;;;;;;14.73;4.83;;;8.00;99.90;;;;;;5034042;28;20406;-72
2023/02/02 07:49:27;;;;;;;8.10;4.73;;;8.10;99.90;;;;;;5034034;28;20198;-73
2023/02/02 07:51:52;;;;;;;7.53;4.27;;;8.10;99.90;;;;;;5033963;28;20175;-71
2023/02/02 07:54:18;;;;;;;5.33;4.13;;;8.20;99.90;;;;;;5033591;28;20204;-71
2023/02/02 07:56:43;;;;;;;9.53;5.00;;;8.20;99.90;;;;;;5033875;28;20168;-71
2023/02/02 07:59:10;;;;;;;5.70;4.60;;;8.20;99.90;;;;;;5033806;28;20195;-72
2023/02/02 08:01:35;;;;;;;7.83;4.10;;;8.20;99.90;;;;;;5033770;28;20194;-70
2023/02/02 08:04:02;;;;;;;12.23;4.47;;;8.20;99.90;;;;;;5033943;28;20410;-71
2023/02/02 08:06:38;;;;;;;13.47;5.80;;;8.10;99.90;;;;;;5033581;28;20164;-71
2023/02/02 08:09:06;;;;;;;9.03;5.60;;;8.10;99.90;;;;;;5033601;28;20450;-73
2023/02/02 08:11:32;;;;;;;19.33;6.30;;;8.10;99.90;;;;;;5045683;28;20421;-73
2023/02/02 08:14:00;;;;;;;17.87;6.50;;;8.20;99.90;;;;;;5053292;28;20814;-73
2023/02/02 08:16:27;;;;;;;14.40;6.30;;;8.10;99.90;;;;;;5053308;28;20404;-71
2023/02/02 08:18:53;;;;;;;14.77;5.00;;;8.20;99.90;;;;;;5053342;28;20425;-73
2023/02/02 08:21:19;;;;;;;14.27;5.80;;;8.20;99.90;;;;;;5053456;28;20401;-73
2023/02/02 08:23:45;;;;;;;16.03;4.93;;;8.30;99.90;;;;;;5053234;28;20420;-72
2023/02/02 08:26:22;;;;;;;18.70;5.20;;;8.40;99.90;;;;;;5064332;28;20789;-72
2023/02/02 08:28:52;;;;;;;4.87;4.40;;;8.40;99.90;;;;;;5033242;28;20178;-72
2023/02/02 08:31:20;;;;;;;14.40;5.30;;;8.40;99.90;;;;;;5032825;28;20419;-72
2023/02/02 08:33:46;;;;;;;11.90;5.30;;;8.40;99.90;;;;;;5033041;28;20445;-72
2023/02/02 08:36:17;;;;;;;15.10;5.73;;;8.30;99.90;;;;;;5032904;28;20540;-72
2023/02/02 08:38:43;;;;;;;6.40;4.80;;;8.30;99.90;;;;;;5033073;28;20399;-73
2023/02/02 08:41:11;;;;;;;11.93;6.07;;;8.40;99.90;;;;;;5041834;28;20417;-72
2023/02/02 08:43:38;;;;;;;10.87;5.30;;;8.50;99.90;;;;;;5052610;28;20413;-74
2023/02/02 08:46:04;;;;;;;13.80;5.20;;;8.40;99.90;;;;;;5039367;28;20426;-73
2023/02/02 08:48:30;;;;;;;12.23;5.93;;;8.40;99.90;;;;;;5032975;28;20410;-71
2023/02/02 08:50:56;;;;;;;13.23;6.20;;;8.40;99.90;;;;;;5032911;28;20418;-72
2023/02/02 08:53:23;;;;;;;8.53;4.50;;;8.40;99.90;;;;;;5031568;28;20202;-72
2023/02/02 08:56:06;;;;;;;13.67;5.40;;;8.40;99.90;;;;;;5032437;28;20430;-72
2023/02/02 08:58:33;;;;;;;10.60;5.03;;;8.50;99.90;;;;;;5031287;28;20398;-71
2023/02/02 09:01:13;;;;;;;18.83;5.20;;;8.50;99.90;;;;;;5032720;28;20395;-72
2023/02/02 09:03:39;;;;;;;18.50;5.93;;;8.60;99.90;;;;;;5032632;28;20402;-71
2023/02/02 09:06:10;;;;;;;7.03;4.87;;;8.60;99.90;;;;;;5032434;28;20409;-71
2023/02/02 09:08:36;;;;;;;17.83;6.47;;;8.60;99.90;;;;;;5032227;28;20402;-72
2023/02/02 09:11:14;;;;;;;5.97;5.30;;;8.60;99.90;;;;;;5045435;28;21018;-72
2023/02/02 09:13:41;;;;;;;11.93;5.80;;;8.70;99.90;;;;;;5052412;28;20197;-71
2023/02/02 09:16:09;;;;;;;10.73;5.23;;;8.70;99.90;;;;;;5052157;28;20437;-72
2023/02/02 09:18:35;;;;;;;14.83;5.47;;;8.70;99.90;;;;;;5051853;28;20420;-72
2023/02/02 09:21:03;;;;;;;13.30;6.10;;;8.80;99.90;;;;;;5051927;28;20402;-72
2023/02/02 09:23:31;;;;;;;4.70;4.20;;;8.90;99.90;;;;;;5052007;28;20185;-73
2023/02/02 09:25:56;;;;;;;12.90;5.00;;;9.00;99.90;;;;;;5051906;28;20444;-71
2023/02/02 09:28:22;;;;;;;7.27;5.07;;;9.00;99.90;;;;;;5052189;28;20448;-71
2023/02/02 09:30:47;;;;;;;12.17;5.63;;;9.00;99.90;;;;;;5039246;28;20602;-72
2023/02/02 09:33:13;;;;;;;10.20;5.87;;;9.00;99.90;;;;;;5037156;28;20225;-71
2023/02/02 09:35:38;;;;;;;16.60;5.40;;;9.10;99.90;;;;;;5062915;28;20707;-73
2023/02/02 09:38:04;;;;;;;12.73;6.80;;;9.20;99.90;;;;;;5052228;28;20167;-72
2023/02/02 09:40:33;;;;;;;9.63;4.97;;;9.20;99.90;;;;;;5050567;28;20195;-70
2023/02/02 09:43:43;;;;;;;6.10;4.60;;;9.20;99.90;;;;;;5051369;28;20174;-74
2023/02/02 09:46:42;;;;;;;11.53;5.03;;;9.20;99.90;;;;;;5037620;28;20805;-72
2023/02/02 09:49:13;;;;;;;5.67;4.43;;;9.20;99.90;;;;;;5032151;28;20472;-72
2023/02/02 09:51:42;;;;;;;9.10;5.53;;;9.20;99.90;;;;;;5031824;28;20402;-74
2023/02/02 09:54:15;;;;;;;6.40;4.80;;;9.20;99.90;;;;;;5030695;28;20454;-72
2023/02/02 09:56:43;;;;;;;6.83;4.23;;;9.20;99.90;;;;;;5031971;28;20394;-73
2023/02/02 09:59:17;;;;;;;5.97;4.60;;;9.30;99.90;;;;;;5031977;28;20426;-73
2023/02/02 10:01:44;;;;;;;6.03;4.40;;;9.30;99.90;;;;;;5031916;28;20414;-74
2023/02/02 10:04:18;;;;;;;5.33;4.20;;;9.30;99.90;;;;;;5031912;28;20413;-73
2023/02/02 10:06:47;;;;;;;8.83;5.23;;;9.20;99.90;;;;;;5030697;28;20417;-73
2023/02/02 10:09:25;;;;;;;6.43;4.23;;;9.20;99.90;;;;;;5032746;28;20835;-73
2023/02/02 10:12:13;;;;;;;7.70;4.27;;;9.30;99.90;;;;;;5051726;28;20405;-72
2023/02/02 10:14:51;;;;;;;14.07;4.93;;;9.40;99.90;;;;;;5051412;28;20510;-73
2023/02/02 10:17:37;;;;;;;10.80;6.10;;;9.30;99.90;;;;;;5051691;28;20405;-72
2023/02/02 10:20:45;;;;;;;7.77;4.97;;;9.60;99.90;;;;;;5051759;28;20416;-72
2023/02/02 10:23:29;;;;;;;11.47;4.97;;;9.60;99.90;;;;;;5051461;28;20856;-70
2023/02/02 10:25:57;;;;;;;11.50;4.97;;;9.70;99.90;;;;;;5051463;28;20420;-72
2023/02/02 10:28:50;;;;;;;8.87;5.50;;;9.70;99.90;;;;;;5051508;28;20405;-72
2023/02/02 10:31:41;;;;;;;16.60;5.03;;;9.60;99.90;;;;;;5051612;28;20887;-72
2023/02/02 10:34:15;;;;;;;8.30;4.63;;;9.60;99.90;;;;;;5051492;28;20551;-74
2023/02/02 10:37:13;;;;;;;8.60;4.87;;;9.40;99.90;;;;;;5051547;28;20397;-74
2023/02/02 10:40:11;;;;;;;6.60;4.97;;;9.40;99.90;;;;;;5055002;28;20521;-73
2023/02/02 10:43:44;;;;;;;11.30;5.10;;;9.40;99.90;;;;;;5061844;28;20410;-73
2023/02/02 10:45:35;;;;;;;13.13;6.00;;;9.40;99.90;;;;;;5063157;28;20822;-73
2023/02/02 10:48:01;;;;;;;7.87;4.97;;;9.50;99.90;;;;;;5051399;28;20451;-73
2023/02/02 10:50:26;;;;;;;18.17;6.30;;;9.60;99.90;;;;;;5051226;28;20425;-74
2023/02/02 10:52:55;;;;;;;12.23;6.30;;;9.90;99.90;;;;;;5050065;28;20833;-72
2023/02/02 10:55:35;;;;;;;6.67;4.50;;;10.20;99.90;;;;;;5052251;28;20248;-73
2023/02/02 10:58:10;;;;;;;12.80;5.77;;;10.50;99.90;;;;;;5055068;28;20444;-73
2023/02/02 11:00:50;;;;;;;8.67;4.00;;;10.50;99.90;;;;;;5054892;28;20505;-73
2023/02/02 11:03:18;;;;;;;10.57;5.10;;;10.60;99.90;;;;;;5055059;28;20413;-73
2023/02/02 11:08:37;;;;;;;9.00;4.13;;;10.60;99.90;;;;;;5054941;28;20439;-73
2023/02/02 11:11:33;;;;;;;5.90;3.57;;;10.60;99.90;;;;;;5042765;28;20416;-73
2023/02/02 11:14:08;;;;;;;7.60;4.60;;;10.70;99.90;;;;;;5034178;28;20998;-73
2023/02/02 11:16:35;;;;;;;4.43;3.80;;;10.60;99.90;;;;;;5034604;28;20433;-72
2023/02/02 11:19:00;;;;;;;10.33;4.63;;;10.70;99.90;;;;;;5034546;28;20426;-71
2023/02/02 11:21:32;;;;;;;4.77;4.27;;;10.70;99.90;;;;;;5044132;28;20767;-73
2023/02/02 11:24:19;;;;;;;7.57;4.43;;;10.70;99.90;;;;;;5054573;28;20159;-72
2023/02/02 11:26:46;;;;;;;11.63;4.03;;;10.70;99.90;;;;;;5054359;28;20853;-71
2023/02/02 11:29:16;;;;;;;7.77;4.10;;;10.60;99.90;;;;;;5054379;28;20425;-73
2023/02/02 11:31:43;;;;;;;13.73;4.60;;;10.50;99.90;;;;;;5054308;28;20410;-74
2023/02/02 11:34:17;;;;;;;11.90;4.83;;;10.40;99.90;;;;;;5054104;28;20974;-71
2023/02/02 11:37:11;;;;;;;4.93;4.30;;;10.40;99.90;;;;;;5052997;28;20911;-72
2023/02/02 11:39:39;;;;;;;12.07;6.00;;;10.30;99.90;;;;;;5044103;28;20469;-71
2023/02/02 11:42:11;;;;;;;8.50;4.87;;;10.40;99.90;;;;;;5034179;28;20480;-72
2023/02/02 11:44:38;;;;;;;6.10;4.50;;;10.40;99.90;;;;;;5033765;28;20434;-71
2023/02/02 11:47:04;;;;;;;6.83;4.07;;;10.30;99.90;;;;;;5033925;28;20417;-73
2023/02/02 11:49:36;;;;;;;8.13;4.27;;;10.40;99.90;;;;;;5051139;28;20428;-72
2023/02/02 11:52:05;;;;;;;9.03;5.07;;;10.50;99.90;;;;;;5056732;28;20424;-73
2023/02/02 11:54:33;;;;;;;6.53;4.77;;;10.50;99.90;;;;;;5053296;28;20810;-73
2023/02/02 11:57:08;;;;;;;8.67;4.30;;;10.40;99.90;;;;;;5037409;28;20490;-72
2023/02/02 11:59:38;;;;;;;11.07;4.87;;;10.50;99.90;;;;;;5033740;28;20428;-72
2023/02/02 12:02:21;;;;;;;10.33;5.97;;;10.50;99.90;;;;;;5033959;28;20399;-72
2023/02/02 12:04:49;;;;;;;7.37;4.17;;;10.80;99.90;;;;;;5033455;28;20502;-72
2023/02/02 12:07:30;;;;;;;12.80;4.10;;;11.10;99.90;;;;;;5032679;28;20497;-73
2023/02/02 12:10:00;;;;;;;8.53;4.40;;;11.40;99.90;;;;;;5033647;28;20536;-72
2023/02/02 12:12:39;;;;;;;7.53;3.90;;;11.80;99.90;;;;;;5032446;28;20851;-72
2023/02/02 12:15:38;;;;;;;6.07;3.70;;;12.00;99.90;;;;;;5032974;28;20453;-74
2023/02/02 12:18:18;;;;;;;7.77;3.90;;;12.10;99.90;;;;;;5032269;28;20424;-73
2023/02/02 12:21:10;;;;;;;10.60;4.10;;;12.20;99.90;;;;;;5033498;28;20497;-72
2023/02/02 12:23:59;;;;;;;6.47;3.83;;;12.40;99.90;;;;;;5033414;28;20904;-72
2023/02/02 12:26:30;;;;;;;5.60;3.63;;;12.40;99.90;;;;;;5033070;28;20403;-72
2023/02/02 12:29:15;;;;;;;5.47;4.00;;;12.60;99.90;;;;;;5031794;28;20773;-73
2023/02/02 12:32:00;;;;;;;8.07;4.47;;;12.50;99.90;;;;;;5033436;28;20785;-72
2023/02/02 12:34:28;;;;;;;7.33;4.03;;;12.50;99.90;;;;;;5033002;28;20939;-72
2023/02/02 12:37:06;;;;;;;7.27;4.67;;;12.50;99.90;;;;;;5033269;28;20441;-72
2023/02/02 12:39:58;;;;;;;3.23;2.93;;;12.10;99.90;;;;;;5048134;28;20479;-73
2023/02/02 12:42:36;;;;;;;5.93;3.50;;;11.90;99.90;;;;;;5053023;28;20767;-72
2023/02/02 12:45:22;;;;;;;10.30;3.40;;;12.00;99.90;;;;;;5048907;28;20468;-72
2023/02/02 12:48:16;;;;;;;9.17;3.63;;;12.10;99.90;;;;;;5033076;28;20810;-72
2023/02/02 12:51:00;;;;;;;5.73;3.73;;;11.80;99.90;;;;;;5032887;28;20438;-71
2023/02/02 12:53:57;;;;;;;6.10;4.40;;;11.80;99.90;;;;;;5032388;28;20452;-72
2023/02/02 12:56:44;;;;;;;3.20;2.90;;;11.80;99.90;;;;;;5031457;28;20426;-72
2023/02/02 12:59:38;;;;;;;4.73;3.57;;;11.80;99.90;;;;;;5032617;28;20434;-74
2023/02/02 13:02:26;;;;;;;5.57;3.57;;;12.00;99.90;;;;;;5064977;28;20899;-72
2023/02/02 13:05:32;;;;;;;10.30;3.20;;;12.50;99.90;;;;;;5052310;28;20463;-73
2023/02/02 13:08:03;;;;;;;7.67;3.40;;;13.10;99.90;;;;;;5047963;28;20497;-74
2023/02/02 13:10:41;;;;;;;7.60;3.17;;;13.80;99.90;;;;;;5032535;28;20446;-74
2023/02/02 13:13:28;;;;;;;7.70;2.80;;;14.50;99.90;;;;;;5031285;28;20410;-73
2023/02/02 13:16:07;;;;;;;5.60;2.40;;;14.60;99.90;;;;;;5032129;28;20418;-73
2023/02/02 13:18:46;;;;;;;3.90;2.57;;;14.40;99.90;;;;;;5032343;28;20765;-74
2023/02/02 13:21:15;;;;;;;4.33;2.30;;;14.40;99.90;;;;;;5032402;28;20406;-76